createdAt,value
2022-10-16T00:02:07.775Z,2.08
2022-10-16T00:04:33.852Z,2.28
2022-10-16T00:06:59.955Z,2.35
2022-10-16T00:09:26.040Z,1.95
2022-10-16T00:11:52.171Z,2.20
2022-10-16T00:14:18.342Z,1.70
2022-10-16T00:16:44.497Z,1.80
2022-10-16T00:19:12.838Z,2.45
2022-10-16T00:21:39.549Z,1.90
2022-10-16T00:24:09.010Z,2.15
2022-10-16T00:26:36.627Z,2.33
2022-10-16T00:29:03.241Z,2.25
2022-10-16T00:31:30.172Z,1.90
2022-10-16T00:33:56.710Z,2.30
2022-10-16T00:36:24.629Z,2.10
2022-10-16T00:38:54.037Z,2.67
2022-10-16T00:41:20.717Z,2.17
2022-10-16T00:43:48.553Z,2.60
2022-10-16T00:46:21.667Z,2.17
2022-10-16T00:49:04.556Z,2.38
2022-10-16T00:51:36.829Z,2.35
2022-10-16T00:54:08.521Z,2.30
2022-10-16T00:56:34.932Z,2.30
2022-10-16T00:59:07.730Z,2.17
2022-10-16T01:01:33.841Z,2.58
2022-10-16T01:04:00.029Z,2.65
2022-10-16T01:06:43.431Z,3.17
2022-10-16T01:09:35.395Z,2.60
2022-10-16T01:12:38.665Z,2.20
2022-10-16T01:15:17.741Z,2.72
2022-10-16T01:17:51.830Z,2.60
2022-10-16T01:20:34.746Z,3.03
2022-10-16T01:23:22.214Z,2.63
2022-10-16T01:26:01.279Z,3.55
2022-10-16T01:28:43.684Z,3.00
2022-10-16T01:31:13.136Z,2.47
2022-10-16T01:33:44.244Z,2.60
2022-10-16T01:36:17.566Z,2.75
2022-10-16T01:38:47.742Z,2.70
2022-10-16T01:41:17.059Z,2.90
2022-10-16T01:44:06.665Z,2.97
2022-10-16T01:46:36.502Z,2.95
2022-10-16T01:49:05.621Z,3.13
2022-10-16T01:51:33.638Z,2.78
2022-10-16T01:54:01.953Z,2.10
2022-10-16T01:56:29.944Z,3.03
2022-10-16T01:59:14.236Z,2.47
2022-10-16T02:01:44.698Z,2.75
2022-10-16T02:04:34.673Z,2.75
2022-10-16T02:07:01.212Z,2.50
2022-10-16T02:09:27.574Z,2.95
2022-10-16T02:11:57.631Z,2.75
2022-10-16T02:14:25.039Z,3.60
2022-10-16T02:16:51.237Z,3.67
2022-10-16T02:19:22.177Z,2.95
2022-10-16T02:22:02.592Z,3.85
2022-10-16T02:24:37.576Z,3.22
2022-10-16T02:27:25.414Z,3.03
2022-10-16T02:29:59.792Z,2.90
2022-10-16T02:32:31.046Z,2.80
2022-10-16T02:34:58.890Z,2.90
2022-10-16T02:37:28.676Z,3.13
2022-10-16T02:39:57.509Z,4.45
2022-10-16T02:42:34.485Z,2.80
2022-10-16T02:45:00.572Z,3.70
2022-10-16T02:47:26.862Z,3.45
2022-10-16T02:49:53.047Z,3.22
2022-10-16T02:52:19.412Z,3.20
2022-10-16T02:54:45.717Z,3.33
2022-10-16T02:57:12.514Z,3.47
2022-10-16T02:59:38.561Z,3.13
2022-10-16T03:02:04.991Z,2.88
2022-10-16T03:04:31.085Z,3.13
2022-10-16T03:06:57.522Z,3.70
2022-10-16T03:09:23.774Z,3.03
2022-10-16T03:11:50.365Z,3.00
2022-10-16T03:14:16.459Z,2.85
2022-10-16T03:16:42.594Z,2.80
2022-10-16T03:19:08.901Z,2.65
2022-10-16T03:21:35.038Z,2.53
2022-10-16T03:24:01.192Z,2.95
2022-10-16T03:26:27.269Z,2.60
2022-10-16T03:28:53.433Z,2.65
2022-10-16T03:31:19.541Z,2.65
2022-10-16T03:33:45.670Z,2.83
2022-10-16T03:36:11.889Z,2.70
2022-10-16T03:38:38.057Z,2.63
2022-10-16T03:41:04.722Z,2.25
2022-10-16T03:43:31.033Z,2.88
2022-10-16T03:45:57.224Z,3.03
2022-10-16T03:48:23.356Z,3.30
2022-10-16T03:50:51.022Z,2.88
2022-10-16T03:53:17.083Z,3.10
2022-10-16T03:55:44.089Z,2.67
2022-10-16T03:58:10.993Z,2.35
2022-10-16T04:00:43.415Z,2.65
2022-10-16T04:03:10.642Z,2.85
2022-10-16T04:05:37.008Z,2.47
2022-10-16T04:08:03.656Z,2.25
2022-10-16T04:10:29.682Z,2.50
2022-10-16T04:12:56.279Z,2.30
2022-10-16T04:15:25.893Z,2.90
2022-10-16T04:17:52.554Z,1.98
2022-10-16T04:20:19.091Z,2.42
2022-10-16T04:22:45.393Z,1.77
2022-10-16T04:25:12.205Z,2.10
2022-10-16T04:27:42.225Z,2.33
2022-10-16T04:30:11.637Z,2.25
2022-10-16T04:32:37.836Z,2.47
2022-10-16T04:35:04.396Z,2.30
2022-10-16T04:37:30.474Z,1.90
2022-10-16T04:39:56.576Z,2.45
2022-10-16T04:42:22.860Z,2.65
2022-10-16T04:44:49.147Z,2.58
2022-10-16T04:47:15.321Z,2.55
2022-10-16T04:49:41.614Z,2.00
2022-10-16T04:52:09.495Z,2.00
2022-10-16T04:54:35.696Z,2.03
2022-10-16T04:57:01.744Z,2.08
2022-10-16T04:59:27.768Z,2.38
2022-10-16T05:01:53.860Z,2.20
2022-10-16T05:04:19.868Z,2.15
2022-10-16T05:06:45.925Z,2.38
2022-10-16T05:09:12.203Z,2.45
2022-10-16T05:11:38.315Z,2.55
2022-10-16T05:14:04.614Z,2.40
2022-10-16T05:16:31.284Z,2.20
2022-10-16T05:19:22.593Z,2.50
2022-10-16T05:21:43.810Z,2.47
2022-10-16T05:24:09.858Z,2.42
2022-10-16T05:26:35.887Z,2.50
2022-10-16T05:29:02.913Z,2.67
2022-10-16T05:31:30.139Z,3.22
2022-10-16T05:34:00.451Z,2.50
2022-10-16T05:36:26.857Z,1.92
2022-10-16T05:38:52.983Z,2.45
2022-10-16T05:41:21.897Z,2.30
2022-10-16T05:43:48.959Z,2.60
2022-10-16T05:46:17.079Z,2.33
2022-10-16T05:48:43.580Z,2.13
2022-10-16T05:51:12.352Z,2.22
2022-10-16T05:53:40.070Z,2.53
2022-10-16T05:56:09.248Z,2.28
2022-10-16T05:58:38.342Z,2.15
2022-10-16T06:01:16.299Z,3.08
2022-10-16T06:03:42.946Z,2.75
2022-10-16T06:06:14.543Z,2.95
2022-10-16T06:08:42.167Z,2.72
2022-10-16T06:11:11.383Z,2.70
2022-10-16T06:13:37.707Z,2.58
2022-10-16T06:16:04.583Z,2.67
2022-10-16T06:18:30.809Z,2.30
2022-10-16T06:20:57.766Z,2.50
2022-10-16T06:23:24.816Z,3.10
2022-10-16T06:25:50.845Z,2.53
2022-10-16T06:28:17.010Z,2.47
2022-10-16T06:30:44.177Z,2.78
2022-10-16T06:33:13.512Z,2.80
2022-10-16T06:35:39.637Z,2.92
2022-10-16T06:38:05.808Z,3.00
2022-10-16T06:40:31.834Z,2.60
2022-10-16T06:42:57.954Z,3.38
2022-10-16T06:45:24.046Z,2.95
2022-10-16T06:47:50.061Z,3.15
2022-10-16T06:50:16.390Z,2.92
2022-10-16T06:52:42.495Z,3.47
2022-10-16T06:55:09.010Z,2.75
2022-10-16T06:57:35.046Z,2.83
2022-10-16T07:00:01.294Z,2.72
2022-10-16T07:02:27.594Z,3.35
2022-10-16T07:04:53.853Z,2.95
2022-10-16T07:07:20.023Z,3.00
2022-10-16T07:09:46.077Z,2.95
2022-10-16T07:12:12.168Z,2.78
2022-10-16T07:14:38.200Z,3.78
2022-10-16T07:17:04.298Z,2.95
2022-10-16T07:19:33.399Z,3.33
2022-10-16T07:22:00.614Z,2.70
2022-10-16T07:24:26.736Z,1.98
2022-10-16T07:26:52.864Z,2.60
2022-10-16T07:29:21.381Z,2.13
2022-10-16T07:31:48.694Z,3.33
2022-10-16T07:34:16.769Z,3.22
2022-10-16T07:39:13.806Z,2.38
2022-10-16T07:41:39.901Z,2.25
2022-10-16T07:44:06.825Z,2.08
2022-10-16T07:46:34.346Z,5.57
2022-10-16T07:49:00.353Z,2.08
2022-10-16T07:51:26.608Z,2.00
2022-10-16T07:53:53.367Z,2.90
2022-10-16T07:56:20.560Z,2.35
2022-10-16T07:58:46.839Z,2.30
2022-10-16T08:01:15.071Z,2.30
2022-10-16T08:03:46.477Z,4.35
2022-10-16T08:06:12.520Z,6.88
2022-10-16T08:08:38.615Z,3.05
2022-10-16T08:11:04.875Z,2.58
2022-10-16T08:13:32.115Z,5.20
2022-10-16T08:15:58.423Z,3.35
2022-10-16T08:18:24.604Z,5.43
2022-10-16T08:20:58.595Z,14.18
2022-10-16T08:23:27.346Z,5.07
2022-10-16T08:26:02.831Z,1.90
2022-10-16T08:28:29.122Z,1.77
2022-10-16T08:30:56.851Z,1.77
2022-10-16T08:33:23.229Z,2.53
2022-10-16T08:35:53.917Z,1.75
2022-10-16T08:38:20.727Z,2.17
2022-10-16T08:40:49.851Z,1.50
2022-10-16T08:43:25.618Z,1.58
2022-10-16T08:46:06.145Z,1.60
2022-10-16T08:48:43.855Z,1.67
2022-10-16T08:51:18.169Z,1.50
2022-10-16T08:53:58.252Z,1.55
2022-10-16T08:56:25.918Z,1.63
2022-10-16T08:58:57.948Z,1.73
2022-10-16T09:01:49.866Z,1.60
2022-10-16T09:04:36.309Z,2.00
2022-10-16T09:07:29.631Z,1.77
2022-10-16T09:10:13.890Z,2.00
2022-10-16T09:12:54.731Z,4.43
2022-10-16T09:15:28.903Z,2.10
2022-10-16T09:18:20.827Z,2.08
2022-10-16T09:21:12.298Z,2.08
2022-10-16T09:26:06.633Z,2.03
2022-10-16T09:28:32.826Z,2.17
2022-10-16T09:30:58.975Z,2.10
2022-10-16T09:33:31.032Z,2.10
2022-10-16T09:36:01.033Z,2.53
2022-10-16T09:38:34.112Z,2.30
2022-10-16T09:41:03.760Z,1.90
2022-10-16T09:43:46.992Z,1.77
2022-10-16T09:46:35.604Z,1.80
2022-10-16T09:49:05.748Z,1.95
2022-10-16T09:51:35.729Z,2.10
2022-10-16T09:54:18.533Z,2.35
2022-10-16T09:56:52.041Z,2.38
2022-10-16T09:59:20.381Z,2.33
2022-10-16T10:01:56.496Z,1.85
2022-10-16T10:04:26.066Z,2.40
2022-10-16T10:06:59.726Z,2.28
2022-10-16T10:09:38.056Z,2.15
2022-10-16T10:12:08.581Z,1.98
2022-10-16T10:14:46.683Z,2.13
2022-10-16T10:17:19.103Z,2.53
2022-10-16T10:19:48.515Z,2.00
2022-10-16T10:22:28.032Z,2.15
2022-10-16T10:25:12.085Z,2.72
2022-10-16T10:27:47.630Z,2.42
2022-10-16T10:30:31.864Z,2.30
2022-10-16T10:33:13.025Z,2.30
2022-10-16T10:35:39.038Z,2.17
2022-10-16T10:38:27.766Z,2.10
2022-10-16T10:41:13.479Z,2.58
2022-10-16T10:43:51.905Z,2.10
2022-10-16T10:46:33.782Z,2.53
2022-10-16T10:49:27.591Z,10.35
2022-10-16T10:52:13.911Z,2.78
2022-10-16T10:55:12.497Z,2.90
2022-10-16T10:57:44.088Z,2.35
2022-10-16T11:00:55.112Z,2.00
2022-10-16T11:03:58.183Z,2.30
2022-10-16T11:06:40.515Z,2.33
2022-10-16T11:09:42.663Z,2.38
2022-10-16T11:12:14.309Z,2.97
2022-10-16T11:14:47.027Z,2.90
2022-10-16T11:17:26.149Z,2.40
2022-10-16T11:20:13.878Z,2.03
2022-10-16T11:22:45.640Z,2.17
2022-10-16T11:25:28.099Z,2.05
2022-10-16T11:28:01.630Z,2.42
2022-10-16T11:30:39.386Z,2.40
2022-10-16T11:33:08.565Z,2.13
2022-10-16T11:35:58.503Z,2.03
2022-10-16T11:38:55.319Z,1.90
2022-10-16T11:41:40.598Z,1.90
2022-10-16T11:44:39.934Z,1.65
2022-10-16T11:50:13.413Z,2.08
2022-10-16T11:53:01.027Z,2.10
2022-10-16T11:55:33.461Z,2.20
2022-10-16T11:58:13.293Z,2.38
2022-10-16T12:01:00.415Z,2.60
2022-10-16T12:03:37.875Z,2.10
2022-10-16T12:06:32.219Z,1.98
2022-10-16T12:09:00.952Z,1.98
2022-10-16T12:11:26.969Z,1.83
2022-10-16T12:14:26.790Z,2.10
2022-10-16T12:16:52.946Z,1.92
2022-10-16T12:19:27.942Z,1.70
2022-10-16T12:21:57.580Z,1.83
2022-10-16T12:24:32.672Z,1.63
2022-10-16T12:26:59.602Z,2.17
2022-10-16T12:29:45.592Z,2.03
2022-10-16T12:32:46.678Z,2.05
2022-10-16T12:35:23.341Z,2.15
2022-10-16T12:37:51.150Z,2.17
2022-10-16T12:40:33.932Z,1.90
2022-10-16T12:43:13.531Z,2.05
2022-10-16T12:45:40.148Z,1.98
2022-10-16T12:48:21.371Z,2.17
2022-10-16T12:53:27.270Z,1.60
2022-10-16T12:56:15.183Z,1.63
2022-10-16T12:59:00.765Z,2.00
2022-10-16T13:01:55.265Z,1.80
2022-10-16T13:04:52.301Z,2.17
2022-10-16T13:07:37.817Z,1.90
2022-10-16T13:10:06.993Z,2.35
2022-10-16T13:12:58.548Z,2.17
2022-10-16T13:15:55.375Z,1.50
2022-10-16T13:18:41.753Z,1.92
2022-10-16T13:21:32.834Z,2.50
2022-10-16T13:24:17.959Z,2.63
2022-10-16T13:26:56.949Z,1.95
2022-10-16T13:29:23.125Z,2.10
2022-10-16T13:31:49.641Z,2.22
2022-10-16T13:34:19.485Z,2.17
2022-10-16T13:36:50.732Z,3.80
2022-10-16T13:42:25.419Z,2.40
2022-10-16T13:44:55.921Z,3.20
2022-10-16T13:47:25.127Z,2.55
2022-10-16T13:50:06.944Z,4.97
2022-10-16T13:52:33.386Z,3.45
2022-10-16T13:55:01.975Z,2.40
2022-10-16T13:57:28.836Z,8.93
2022-10-16T13:59:56.052Z,3.58
2022-10-16T14:02:30.158Z,3.30
2022-10-16T14:04:57.897Z,5.18
2022-10-16T14:07:26.960Z,3.47
2022-10-16T14:09:54.591Z,2.03
2022-10-16T14:12:24.084Z,3.83
2022-10-16T14:14:55.829Z,2.28
2022-10-16T14:17:31.615Z,2.67
2022-10-16T14:20:02.810Z,1.92
2022-10-16T14:22:35.641Z,1.83
2022-10-16T14:25:03.390Z,2.05
2022-10-16T14:27:33.441Z,2.33
2022-10-16T14:30:16.627Z,2.22
2022-10-16T14:32:57.629Z,2.13
2022-10-16T14:35:31.822Z,1.95
2022-10-16T14:37:59.944Z,2.03
2022-10-16T14:40:37.334Z,2.00
2022-10-16T14:43:04.920Z,2.88
2022-10-16T14:45:34.306Z,2.67
2022-10-16T14:48:19.566Z,2.80
2022-10-16T14:50:46.103Z,2.10
2022-10-16T14:53:15.828Z,1.85
2022-10-16T14:55:44.289Z,2.47
2022-10-16T14:58:22.306Z,2.45
2022-10-16T15:00:48.653Z,2.10
2022-10-16T15:03:14.978Z,2.20
2022-10-16T15:05:41.429Z,2.70
2022-10-16T15:08:13.412Z,2.05
2022-10-16T15:10:44.193Z,3.95
2022-10-16T15:13:13.230Z,2.75
2022-10-16T15:15:45.908Z,3.13
2022-10-16T15:18:15.098Z,3.00
2022-10-16T15:20:41.582Z,2.50
2022-10-16T15:23:22.206Z,2.90
2022-10-16T15:25:53.620Z,2.60
2022-10-16T15:28:21.107Z,2.78
2022-10-16T15:30:50.658Z,3.25
2022-10-16T15:33:19.357Z,3.47
2022-10-16T15:35:49.770Z,3.80
2022-10-16T15:38:17.077Z,4.23
2022-10-16T15:40:43.244Z,5.60
2022-10-16T15:43:11.922Z,5.68
2022-10-16T15:45:38.583Z,5.72
2022-10-16T15:48:05.256Z,6.43
2022-10-16T15:50:32.559Z,7.35
2022-10-16T15:52:58.797Z,5.75
2022-10-16T15:55:25.450Z,5.32
2022-10-16T15:57:52.965Z,5.18
2022-10-16T16:00:25.683Z,5.82
2022-10-16T16:02:54.234Z,7.93
2022-10-16T16:05:21.986Z,6.68
2022-10-16T16:07:49.022Z,5.38
2022-10-16T16:10:15.659Z,6.75
2022-10-16T16:12:42.610Z,7.75
2022-10-16T16:15:11.589Z,7.03
2022-10-16T16:17:37.786Z,8.18
2022-10-16T16:20:05.360Z,8.30
2022-10-16T16:22:31.945Z,12.02
2022-10-16T16:24:58.615Z,15.00
2022-10-16T16:27:30.248Z,17.27
2022-10-16T16:29:56.810Z,90.00
2022-10-16T16:32:22.988Z,74.80
2022-10-16T16:34:49.539Z,71.53
2022-10-16T16:37:15.637Z,73.40
2022-10-16T16:39:41.673Z,42.05
2022-10-16T16:42:07.992Z,24.92
2022-10-16T16:44:36.397Z,20.30
2022-10-16T16:47:04.080Z,17.77
2022-10-16T16:49:30.181Z,18.38
2022-10-16T16:51:56.426Z,17.30
2022-10-16T16:54:22.579Z,13.38
2022-10-16T16:56:48.729Z,10.65
2022-10-16T16:59:19.930Z,7.07
2022-10-16T17:01:46.994Z,7.57
2022-10-16T17:04:15.378Z,6.68
2022-10-16T17:06:42.406Z,10.40
2022-10-16T17:09:09.851Z,9.95
2022-10-16T17:11:36.589Z,12.57
2022-10-16T17:14:03.664Z,28.98
2022-10-16T17:16:35.553Z,41.95
2022-10-16T17:19:08.462Z,44.63
2022-10-16T17:21:35.361Z,36.88
2022-10-16T17:24:02.111Z,33.92
2022-10-16T17:26:28.943Z,29.40
2022-10-16T17:28:57.554Z,26.17
2022-10-16T17:31:31.835Z,28.63
2022-10-16T17:33:59.523Z,27.08
2022-10-16T17:36:28.982Z,23.63
2022-10-16T17:38:55.138Z,22.95
2022-10-16T17:41:23.947Z,26.92
2022-10-16T17:43:51.560Z,37.47
2022-10-16T17:46:20.206Z,45.30
2022-10-16T17:48:48.745Z,41.42
2022-10-16T17:51:18.422Z,40.92
2022-10-16T17:53:52.237Z,79.43
2022-10-16T17:56:19.460Z,67.03
2022-10-16T17:58:52.540Z,131.40
2022-10-16T18:01:22.399Z,73.25
2022-10-16T18:03:50.479Z,35.15
2022-10-16T18:06:20.291Z,30.50
2022-10-16T18:08:49.248Z,80.95
2022-10-16T18:11:15.699Z,69.40
2022-10-16T18:13:41.858Z,27.48
2022-10-16T18:16:10.865Z,20.95
2022-10-16T18:18:41.155Z,20.10
2022-10-16T18:21:10.395Z,27.45
2022-10-16T18:23:37.260Z,37.65
2022-10-16T18:26:05.756Z,21.55
2022-10-16T18:28:32.726Z,20.92
2022-10-16T18:31:01.071Z,32.40
2022-10-16T18:33:30.335Z,35.55
2022-10-16T18:36:04.020Z,34.33
2022-10-16T18:38:50.993Z,33.97
2022-10-16T18:41:18.479Z,27.45
2022-10-16T18:43:44.535Z,25.83
2022-10-16T18:46:13.974Z,28.15
2022-10-16T18:48:40.909Z,25.40
2022-10-16T18:51:17.619Z,23.27
2022-10-16T18:53:46.273Z,23.02
2022-10-16T18:56:14.404Z,20.08
2022-10-16T18:58:44.155Z,18.38
2022-10-16T19:01:16.778Z,18.75
2022-10-16T19:03:43.769Z,23.08
2022-10-16T19:06:12.404Z,20.52
2022-10-16T19:08:38.894Z,31.75
2022-10-16T19:11:07.024Z,42.35
2022-10-16T19:13:33.840Z,38.50
2022-10-16T19:16:19.255Z,28.33
2022-10-16T19:18:54.859Z,20.50
2022-10-16T19:21:23.956Z,26.42
2022-10-16T19:23:55.066Z,27.83
2022-10-16T19:26:21.877Z,21.35
2022-10-16T19:28:53.509Z,19.85
2022-10-16T19:31:24.052Z,19.25
2022-10-16T19:33:56.274Z,21.50
2022-10-16T19:36:25.415Z,17.00
2022-10-16T19:39:04.169Z,15.75
2022-10-16T19:41:31.261Z,16.67
2022-10-16T19:44:02.072Z,16.10
2022-10-16T19:46:28.221Z,15.10
2022-10-16T19:48:55.924Z,13.38
2022-10-16T19:51:23.590Z,14.35
2022-10-16T19:53:55.643Z,12.95
2022-10-16T19:56:23.788Z,12.02
2022-10-16T19:58:51.683Z,12.88
2022-10-16T20:01:19.669Z,13.82
2022-10-16T20:03:47.294Z,12.10
2022-10-16T20:06:14.630Z,13.45
2022-10-16T20:08:42.335Z,12.88
2022-10-16T20:11:13.779Z,8.85
2022-10-16T20:16:12.347Z,9.82
2022-10-16T20:18:40.174Z,10.80
2022-10-16T20:21:14.420Z,9.82
2022-10-16T20:23:41.440Z,11.98
2022-10-16T20:26:10.943Z,9.57
2022-10-16T20:28:39.570Z,9.07
2022-10-16T20:31:08.208Z,8.90
2022-10-16T20:33:34.415Z,9.48
2022-10-16T20:36:00.628Z,9.50
2022-10-16T20:38:27.345Z,8.73
2022-10-16T20:40:53.413Z,9.50
2022-10-16T20:43:20.986Z,8.65
2022-10-16T20:45:47.151Z,9.93
2022-10-16T20:48:17.943Z,9.50
2022-10-16T20:50:44.013Z,9.27
2022-10-16T20:53:10.049Z,9.55
2022-10-16T20:55:37.296Z,11.93
2022-10-16T20:58:04.991Z,9.02
2022-10-16T21:00:31.178Z,8.82
2022-10-16T21:02:57.311Z,8.82
2022-10-16T21:05:23.883Z,9.88
2022-10-16T21:07:50.304Z,9.52
2022-10-16T21:10:16.456Z,8.65
2022-10-16T21:12:42.497Z,9.30
2022-10-16T21:15:14.926Z,8.02
2022-10-16T21:17:41.727Z,8.00
2022-10-16T21:20:08.373Z,7.22
2022-10-16T21:22:35.389Z,6.80
2022-10-16T21:25:01.948Z,7.43
2022-10-16T21:27:29.093Z,8.85
2022-10-16T21:29:56.748Z,8.15
2022-10-16T21:32:23.036Z,7.90
2022-10-16T21:34:49.045Z,8.13
2022-10-16T21:37:15.076Z,6.90
2022-10-16T21:39:41.305Z,7.65
2022-10-16T21:42:07.521Z,8.07
2022-10-16T21:44:33.823Z,7.03
2022-10-16T21:47:00.352Z,7.50
2022-10-16T21:49:26.526Z,8.25
2022-10-16T21:51:52.845Z,8.20
2022-10-16T21:54:21.768Z,8.18
2022-10-16T21:56:48.226Z,7.50
2022-10-16T21:59:15.042Z,7.93
2022-10-16T22:01:42.694Z,7.90
2022-10-16T22:04:11.073Z,8.70
2022-10-16T22:06:37.991Z,7.80
2022-10-16T22:09:04.228Z,6.22
2022-10-16T22:11:36.173Z,7.28
2022-10-16T22:14:10.446Z,7.80
2022-10-16T22:16:37.256Z,8.43
2022-10-16T22:19:07.675Z,8.25
2022-10-16T22:21:38.352Z,8.30
2022-10-16T22:24:05.781Z,7.68
2022-10-16T22:26:32.569Z,7.82
2022-10-16T22:28:58.912Z,8.07
2022-10-16T22:31:25.032Z,7.75
2022-10-16T22:33:59.325Z,7.05
2022-10-16T22:36:26.776Z,7.43
2022-10-16T22:38:52.931Z,7.82
2022-10-16T22:41:19.882Z,8.18
2022-10-16T22:43:47.733Z,7.82
2022-10-16T22:46:18.567Z,7.45
2022-10-16T22:48:44.731Z,8.10
2022-10-16T22:51:16.515Z,8.27
2022-10-16T22:53:44.174Z,8.43
2022-10-16T22:56:10.596Z,8.15
2022-10-16T22:58:37.385Z,8.65
2022-10-16T23:01:12.380Z,8.43
2022-10-16T23:03:38.666Z,8.70
2022-10-16T23:06:05.096Z,7.43
2022-10-16T23:08:31.185Z,9.98
2022-10-16T23:11:00.227Z,9.80
2022-10-16T23:13:26.664Z,9.40
2022-10-16T23:15:52.785Z,8.27
2022-10-16T23:18:18.878Z,9.88
2022-10-16T23:20:44.900Z,9.38
2022-10-16T23:23:10.917Z,9.75
2022-10-16T23:25:43.699Z,9.88
2022-10-16T23:28:10.760Z,9.75
2022-10-16T23:30:38.879Z,10.27
2022-10-16T23:33:06.175Z,10.15
2022-10-16T23:35:32.550Z,10.75
2022-10-16T23:37:58.583Z,9.85
2022-10-16T23:40:24.617Z,10.48
2022-10-16T23:42:50.912Z,10.82
2022-10-16T23:45:16.985Z,9.93
2022-10-16T23:47:43.024Z,10.07
2022-10-16T23:50:09.613Z,11.00
2022-10-16T23:52:35.718Z,11.73
2022-10-16T23:55:01.819Z,12.10
2022-10-16T23:57:28.180Z,12.18
2022-10-16T23:59:57.606Z,12.55
